createdAt,value
2023-10-29T00:00:37.664Z,13.04
2023-10-29T00:03:41.356Z,13.01
2023-10-29T00:06:45.971Z,13.00
2023-10-29T00:09:48.737Z,12.97
2023-10-29T00:12:51.531Z,12.96
2023-10-29T00:15:54.282Z,12.96
2023-10-29T00:18:57.047Z,12.96
2023-10-29T00:22:01.205Z,12.94
2023-10-29T00:25:04.036Z,12.96
2023-10-29T00:28:06.828Z,12.98
2023-10-29T00:31:09.463Z,12.98
2023-10-29T00:34:12.379Z,13.04
2023-10-29T00:37:18.403Z,13.04
2023-10-29T00:40:21.233Z,13.08
2023-10-29T00:43:24.553Z,13.08
2023-10-29T00:46:27.930Z,13.12
2023-10-29T00:49:30.886Z,13.11
2023-10-29T00:52:36.067Z,13.12
2023-10-29T00:55:39.038Z,13.11
2023-10-29T00:58:42.841Z,13.12
2023-10-29T01:01:45.602Z,13.18
2023-10-29T01:04:48.749Z,13.19
2023-10-29T01:07:53.241Z,13.24
2023-10-29T01:10:56.340Z,13.25
2023-10-29T01:13:59.057Z,13.29
2023-10-29T01:17:01.970Z,13.31
2023-10-29T01:20:05.681Z,13.34
2023-10-29T01:23:09.865Z,13.34
2023-10-29T01:26:12.799Z,13.34
2023-10-29T01:29:15.672Z,13.34
2023-10-29T01:32:18.495Z,13.34
2023-10-29T01:35:21.534Z,13.29
2023-10-29T01:38:25.662Z,13.25
2023-10-29T01:41:28.618Z,13.14
2023-10-29T01:44:31.983Z,13.08
2023-10-29T01:47:35.054Z,13.09
2023-10-29T01:50:38.102Z,13.09
2023-10-29T01:53:42.341Z,12.97
2023-10-29T01:56:45.228Z,12.99
2023-10-29T01:59:48.038Z,12.98
2023-10-29T02:02:51.537Z,13.05
2023-10-29T02:05:56.018Z,13.12
2023-10-29T02:09:03.227Z,13.15
2023-10-29T02:12:06.708Z,13.14
2023-10-29T02:15:09.871Z,13.17
2023-10-29T02:18:13.453Z,13.23
2023-10-29T02:21:16.388Z,13.24
2023-10-29T02:24:20.702Z,13.37
2023-10-29T02:27:23.814Z,13.40
2023-10-29T02:30:26.555Z,13.43
2023-10-29T02:33:29.385Z,13.46
2023-10-29T02:36:32.149Z,13.50
2023-10-29T02:39:36.276Z,13.55
2023-10-29T02:42:39.033Z,13.58
2023-10-29T02:45:42.319Z,13.65
2023-10-29T02:48:46.346Z,13.69
2023-10-29T02:51:49.057Z,13.69
2023-10-29T02:54:53.286Z,13.67
2023-10-29T02:57:56.113Z,13.71
2023-10-29T03:01:05.510Z,13.70
2023-10-29T03:04:08.548Z,13.76
2023-10-29T03:07:13.463Z,13.72
2023-10-29T03:10:17.485Z,13.74
2023-10-29T03:13:20.172Z,13.74
2023-10-29T03:16:22.921Z,13.78
2023-10-29T03:19:25.700Z,13.72
2023-10-29T03:22:28.493Z,13.75
2023-10-29T03:25:32.647Z,13.75
2023-10-29T03:28:35.556Z,13.75
2023-10-29T03:31:39.421Z,13.74
2023-10-29T03:34:42.233Z,13.76
2023-10-29T03:37:44.963Z,13.76
2023-10-29T03:40:49.133Z,13.78
2023-10-29T03:43:52.085Z,13.75
2023-10-29T03:46:54.835Z,13.69
2023-10-29T03:49:57.673Z,13.61
2023-10-29T03:53:00.420Z,13.44
2023-10-29T03:56:05.227Z,13.36
2023-10-29T03:59:08.147Z,13.33
2023-10-29T04:02:11.099Z,13.29
2023-10-29T04:05:14.011Z,13.26
2023-10-29T04:08:18.022Z,13.22
2023-10-29T04:11:22.168Z,13.22
2023-10-29T04:14:24.918Z,13.29
2023-10-29T04:17:27.842Z,13.41
2023-10-29T04:20:30.678Z,13.58
2023-10-29T04:23:33.581Z,13.81
2023-10-29T04:26:37.798Z,13.95
2023-10-29T04:29:40.654Z,14.05
2023-10-29T04:32:43.576Z,14.10
2023-10-29T04:35:46.564Z,14.20
2023-10-29T04:38:49.500Z,14.31
2023-10-29T04:41:53.914Z,14.41
2023-10-29T04:44:56.665Z,14.48
2023-10-29T04:47:59.590Z,14.53
2023-10-29T04:51:02.648Z,14.59
2023-10-29T04:54:06.049Z,14.62
2023-10-29T04:57:10.314Z,14.68
2023-10-29T05:00:14.344Z,14.65
2023-10-29T05:03:17.259Z,14.59
2023-10-29T05:06:20.872Z,14.54
2023-10-29T05:09:23.684Z,14.46
2023-10-29T05:12:27.782Z,14.37
2023-10-29T05:15:31.172Z,14.26
2023-10-29T05:18:33.943Z,14.17
2023-10-29T05:21:36.678Z,14.08
2023-10-29T05:24:40.155Z,13.98
2023-10-29T05:27:52.927Z,13.87
2023-10-29T05:30:55.816Z,13.85
2023-10-29T05:33:58.623Z,13.89
2023-10-29T05:37:03.840Z,13.95
2023-10-29T05:40:09.136Z,14.00
2023-10-29T05:43:13.314Z,13.95
2023-10-29T05:46:16.810Z,13.91
2023-10-29T05:49:19.519Z,13.87
2023-10-29T05:52:22.637Z,13.82
2023-10-29T05:55:25.554Z,13.75
2023-10-29T05:58:29.700Z,13.69
2023-10-29T06:01:32.509Z,13.66
2023-10-29T06:04:35.447Z,13.62
2023-10-29T06:07:38.412Z,13.58
2023-10-29T06:10:41.119Z,13.55
2023-10-29T06:13:45.868Z,13.51
2023-10-29T06:16:48.626Z,13.46
2023-10-29T06:19:51.428Z,13.46
2023-10-29T06:22:54.178Z,13.43
2023-10-29T06:25:56.963Z,13.41
2023-10-29T06:29:01.110Z,13.39
2023-10-29T06:32:04.178Z,13.37
2023-10-29T06:35:08.122Z,13.40
2023-10-29T06:38:10.963Z,13.38
2023-10-29T06:41:13.721Z,13.41
2023-10-29T06:44:18.029Z,13.35
2023-10-29T06:47:20.812Z,13.34
2023-10-29T06:50:23.576Z,13.39
2023-10-29T06:53:26.344Z,13.40
2023-10-29T06:56:29.165Z,13.40
2023-10-29T06:59:34.542Z,13.39
2023-10-29T07:02:37.937Z,13.44
2023-10-29T07:05:40.881Z,13.50
2023-10-29T07:08:46.312Z,13.56
2023-10-29T07:11:49.128Z,13.61
2023-10-29T07:14:53.637Z,13.69
2023-10-29T07:17:56.609Z,13.77
2023-10-29T07:20:59.747Z,13.87
2023-10-29T07:24:04.705Z,13.94
2023-10-29T07:27:07.629Z,14.03
2023-10-29T07:30:12.815Z,14.11
2023-10-29T07:33:15.715Z,14.18
2023-10-29T07:36:19.057Z,14.25
2023-10-29T07:39:21.882Z,14.30
2023-10-29T07:42:25.941Z,14.29
2023-10-29T07:45:30.046Z,14.28
2023-10-29T07:48:32.826Z,14.30
2023-10-29T07:51:35.671Z,14.36
2023-10-29T07:54:38.522Z,14.42
2023-10-29T07:57:41.764Z,14.46
2023-10-29T08:00:46.112Z,14.48
2023-10-29T08:03:49.723Z,14.50
2023-10-29T08:06:52.522Z,14.51
2023-10-29T08:09:55.444Z,14.61
2023-10-29T08:12:58.219Z,14.69
2023-10-29T08:16:04.334Z,14.75
2023-10-29T08:19:07.541Z,14.81
2023-10-29T08:22:10.244Z,14.87
2023-10-29T08:25:13.038Z,14.86
2023-10-29T08:28:15.760Z,14.89
2023-10-29T08:31:19.781Z,14.92
2023-10-29T08:34:23.043Z,14.91
2023-10-29T08:37:26.444Z,14.92
2023-10-29T08:40:29.241Z,14.91
2023-10-29T08:43:32.501Z,14.94
2023-10-29T08:46:36.761Z,14.93
2023-10-29T08:49:39.522Z,14.89
2023-10-29T08:52:42.250Z,14.90
2023-10-29T08:55:44.983Z,14.89
2023-10-29T08:58:47.733Z,14.93
2023-10-29T09:01:53.420Z,14.95
2023-10-29T09:04:58.342Z,14.95
2023-10-29T09:08:01.081Z,14.98
2023-10-29T09:11:03.949Z,14.95
2023-10-29T09:14:08.572Z,15.05
2023-10-29T09:17:12.698Z,15.20
2023-10-29T09:20:15.589Z,15.18
2023-10-29T09:23:18.548Z,15.21
2023-10-29T09:26:21.316Z,15.23
2023-10-29T09:29:24.989Z,15.23
2023-10-29T09:32:29.094Z,15.19
2023-10-29T09:35:32.073Z,15.12
2023-10-29T09:38:34.708Z,15.17
2023-10-29T09:41:39.791Z,15.19
2023-10-29T09:44:43.744Z,15.19
2023-10-29T09:47:48.181Z,15.22
2023-10-29T09:50:51.932Z,15.29
2023-10-29T09:53:59.415Z,15.29
2023-10-29T09:57:02.524Z,15.32
2023-10-29T10:00:09.047Z,15.30
2023-10-29T10:03:13.375Z,15.36
2023-10-29T10:06:20.182Z,15.41
2023-10-29T10:09:23.637Z,15.37
2023-10-29T10:12:26.629Z,15.27
2023-10-29T10:15:29.534Z,15.28
2023-10-29T10:18:50.298Z,15.31
2023-10-29T10:21:52.948Z,15.32
2023-10-29T10:24:55.543Z,15.35
2023-10-29T10:27:59.540Z,15.38
2023-10-29T10:31:15.756Z,15.39
2023-10-29T10:34:20.632Z,15.38
2023-10-29T10:37:26.149Z,15.39
2023-10-29T10:40:29.078Z,15.42
2023-10-29T10:43:31.759Z,15.44
2023-10-29T10:46:36.289Z,15.47
2023-10-29T10:49:44.135Z,15.48
2023-10-29T10:52:47.085Z,15.51
2023-10-29T10:56:01.634Z,15.50
2023-10-29T10:59:07.672Z,15.50
2023-10-29T11:02:14.204Z,15.55
2023-10-29T11:05:18.977Z,15.54
2023-10-29T11:08:25.048Z,15.51
2023-10-29T11:11:31.124Z,15.52
2023-10-29T11:14:34.115Z,15.52
2023-10-29T11:17:52.499Z,15.51
2023-10-29T11:21:02.992Z,15.56
2023-10-29T11:24:19.386Z,15.60
2023-10-29T11:27:38.890Z,15.70
2023-10-29T11:30:41.711Z,15.80
2023-10-29T11:33:45.823Z,15.92
2023-10-29T11:36:51.435Z,16.08
2023-10-29T11:39:54.182Z,16.21
2023-10-29T11:42:58.287Z,16.30
2023-10-29T11:46:02.476Z,16.44
2023-10-29T11:49:06.505Z,16.54
2023-10-29T11:52:10.711Z,16.67
2023-10-29T11:55:14.306Z,16.71
2023-10-29T11:58:21.055Z,16.81
2023-10-29T12:01:24.161Z,16.99
2023-10-29T12:04:30.868Z,17.42
2023-10-29T12:07:35.714Z,17.93
2023-10-29T12:10:47.348Z,18.46
2023-10-29T12:13:50.114Z,19.03
2023-10-29T12:16:53.066Z,19.48
2023-10-29T12:19:56.313Z,19.86
2023-10-29T12:23:04.109Z,20.37
2023-10-29T12:26:08.152Z,20.79
2023-10-29T12:29:11.579Z,21.04
2023-10-29T12:32:18.190Z,21.15
2023-10-29T12:35:35.942Z,20.87
2023-10-29T12:38:42.637Z,20.66
2023-10-29T12:41:53.042Z,20.62
2023-10-29T12:44:57.008Z,20.42
2023-10-29T12:48:12.686Z,20.26
2023-10-29T12:51:24.400Z,20.11
2023-10-29T12:54:30.371Z,19.94
2023-10-29T12:57:33.129Z,19.74
2023-10-29T13:00:35.946Z,19.63
2023-10-29T13:03:38.694Z,19.58
2023-10-29T13:06:43.600Z,19.56
2023-10-29T13:09:52.509Z,19.69
2023-10-29T13:12:57.085Z,19.92
2023-10-29T13:15:59.784Z,19.99
2023-10-29T13:19:02.900Z,20.01
2023-10-29T13:22:06.695Z,19.93
2023-10-29T13:25:12.346Z,19.80
2023-10-29T13:28:15.425Z,19.71
2023-10-29T13:31:18.399Z,19.61
2023-10-29T13:34:22.033Z,19.52
2023-10-29T13:37:24.754Z,19.41
2023-10-29T13:40:28.876Z,19.37
2023-10-29T13:43:31.892Z,19.35
2023-10-29T13:46:35.100Z,19.27
2023-10-29T13:49:38.452Z,19.19
2023-10-29T13:52:41.917Z,19.12
2023-10-29T13:55:46.118Z,19.11
2023-10-29T13:58:48.928Z,19.10
2023-10-29T14:01:51.664Z,19.09
2023-10-29T14:04:54.377Z,19.09
2023-10-29T14:07:58.736Z,19.04
2023-10-29T14:11:02.913Z,19.00
2023-10-29T14:14:05.761Z,18.95
2023-10-29T14:17:08.573Z,18.89
2023-10-29T14:20:12.059Z,18.83
2023-10-29T14:23:14.877Z,18.78
2023-10-29T14:26:19.660Z,18.74
2023-10-29T14:29:22.395Z,18.73
2023-10-29T14:32:25.490Z,18.77
2023-10-29T14:35:28.155Z,18.85
2023-10-29T14:38:31.348Z,18.87
2023-10-29T14:41:35.471Z,18.81
2023-10-29T14:44:38.278Z,18.81
2023-10-29T14:47:40.999Z,18.78
2023-10-29T14:50:43.929Z,18.78
2023-10-29T14:53:46.688Z,18.78
2023-10-29T14:56:50.735Z,18.70
2023-10-29T14:59:53.542Z,18.65
2023-10-29T15:02:56.856Z,18.60
2023-10-29T15:05:59.770Z,18.56
2023-10-29T15:09:03.513Z,18.52
2023-10-29T15:12:09.205Z,18.53
2023-10-29T15:15:26.329Z,18.46
2023-10-29T15:18:33.194Z,18.43
2023-10-29T15:21:36.065Z,18.41
2023-10-29T15:24:38.832Z,18.39
2023-10-29T15:27:43.811Z,18.36
2023-10-29T15:30:46.764Z,18.28
2023-10-29T15:33:49.547Z,18.21
2023-10-29T15:36:52.274Z,18.13
2023-10-29T15:39:56.828Z,18.09
2023-10-29T15:43:01.226Z,18.03
2023-10-29T15:46:05.303Z,17.98
2023-10-29T15:49:08.155Z,17.95
2023-10-29T15:52:10.927Z,17.86
2023-10-29T15:55:13.663Z,17.73
2023-10-29T15:58:19.440Z,17.63
2023-10-29T16:01:22.308Z,17.55
2023-10-29T16:04:25.920Z,17.43
2023-10-29T16:07:28.856Z,17.35
2023-10-29T16:10:31.588Z,17.24
2023-10-29T16:13:36.337Z,17.11
2023-10-29T16:16:39.012Z,17.01
2023-10-29T16:19:41.919Z,16.90
2023-10-29T16:22:44.629Z,16.81
2023-10-29T16:25:47.415Z,16.76
2023-10-29T16:28:51.491Z,16.69
2023-10-29T16:31:55.375Z,16.66
2023-10-29T16:34:58.784Z,16.61
2023-10-29T16:38:01.547Z,16.57
2023-10-29T16:41:07.475Z,16.50
2023-10-29T16:44:11.519Z,16.43
2023-10-29T16:47:14.232Z,16.34
2023-10-29T16:50:17.199Z,16.28
2023-10-29T16:53:19.951Z,16.22
2023-10-29T16:56:22.931Z,16.19
2023-10-29T16:59:26.951Z,16.23
2023-10-29T17:02:29.994Z,16.49
2023-10-29T17:05:32.832Z,16.60
2023-10-29T17:08:35.584Z,16.48
2023-10-29T17:11:39.163Z,16.38
2023-10-29T17:14:43.181Z,16.19
2023-10-29T17:17:45.912Z,16.03
2023-10-29T17:20:52.515Z,15.89
2023-10-29T17:23:55.289Z,15.63
2023-10-29T17:26:58.334Z,15.48
2023-10-29T17:30:04.950Z,15.37
2023-10-29T17:33:07.773Z,15.19
2023-10-29T17:36:11.551Z,15.13
2023-10-29T17:39:16.140Z,15.00
2023-10-29T17:42:19.050Z,14.90
2023-10-29T17:45:23.173Z,14.89
2023-10-29T17:51:29.053Z,14.81
2023-10-29T17:54:33.003Z,14.71
2023-10-29T17:57:35.940Z,14.67
2023-10-29T18:00:40.066Z,14.63
2023-10-29T18:03:42.944Z,14.58
2023-10-29T18:06:50.269Z,14.63
2023-10-29T18:09:52.949Z,14.58
2023-10-29T18:12:55.656Z,14.54
2023-10-29T18:16:00.905Z,14.52
2023-10-29T18:19:05.495Z,14.48
2023-10-29T18:22:08.146Z,14.44
2023-10-29T18:25:10.973Z,14.44
2023-10-29T18:28:13.703Z,14.43
2023-10-29T18:31:17.770Z,14.41
2023-10-29T18:34:20.482Z,14.39
2023-10-29T18:37:23.189Z,14.38
2023-10-29T18:40:27.904Z,14.38
2023-10-29T18:43:30.664Z,14.32
2023-10-29T18:46:34.765Z,14.33
2023-10-29T18:49:37.614Z,14.33
2023-10-29T18:52:40.316Z,14.33
2023-10-29T18:55:43.191Z,14.25
2023-10-29T18:58:46.014Z,14.19
2023-10-29T19:01:50.232Z,14.14
2023-10-29T19:04:53.295Z,14.11
2023-10-29T19:07:56.009Z,14.12
2023-10-29T19:11:01.814Z,14.12
2023-10-29T19:14:05.039Z,14.13
2023-10-29T19:17:10.171Z,14.16
2023-10-29T19:20:13.979Z,14.09
2023-10-29T19:23:16.679Z,14.06
2023-10-29T19:26:19.437Z,14.04
2023-10-29T19:29:22.241Z,13.99
2023-10-29T19:32:26.277Z,13.98
2023-10-29T19:35:32.830Z,13.94
2023-10-29T19:38:35.514Z,13.91
2023-10-29T19:41:38.208Z,13.95
2023-10-29T19:44:41.462Z,13.92
2023-10-29T19:47:46.097Z,13.97
2023-10-29T19:50:57.606Z,13.84
2023-10-29T19:54:01.421Z,13.83
2023-10-29T19:57:04.763Z,13.83
2023-10-29T20:00:08.743Z,13.82
2023-10-29T20:03:13.725Z,13.83
2023-10-29T20:06:16.904Z,13.76
2023-10-29T20:09:19.861Z,13.77
2023-10-29T20:12:22.600Z,13.80
2023-10-29T20:15:26.403Z,13.71
2023-10-29T20:18:31.687Z,13.70
2023-10-29T20:21:34.438Z,13.64
2023-10-29T20:24:37.520Z,13.61
2023-10-29T20:27:42.398Z,13.57
2023-10-29T20:30:46.946Z,13.56
2023-10-29T20:33:51.847Z,13.56
2023-10-29T20:36:54.649Z,13.62
2023-10-29T20:39:57.396Z,13.61
2023-10-29T20:43:00.295Z,13.64
2023-10-29T20:46:04.639Z,13.62
2023-10-29T20:49:08.723Z,13.60
2023-10-29T20:52:11.622Z,13.53
2023-10-29T20:55:14.483Z,13.57
2023-10-29T20:58:17.287Z,13.59
2023-10-29T21:01:20.055Z,13.57
2023-10-29T21:04:24.308Z,13.61
2023-10-29T21:07:27.005Z,13.59
2023-10-29T21:10:30.398Z,13.60
2023-10-29T21:13:33.370Z,13.58
2023-10-29T21:16:36.248Z,13.60
2023-10-29T21:19:40.405Z,13.62
2023-10-29T21:22:43.169Z,13.69
2023-10-29T21:25:45.975Z,13.75
2023-10-29T21:28:49.049Z,13.80
2023-10-29T21:31:52.001Z,13.83
2023-10-29T21:34:56.029Z,13.80
2023-10-29T21:37:58.853Z,13.83
2023-10-29T21:41:05.667Z,13.82
2023-10-29T21:44:08.526Z,13.84
2023-10-29T21:47:11.323Z,13.85
2023-10-29T21:50:16.768Z,13.86
2023-10-29T21:53:19.605Z,13.83
2023-10-29T21:56:22.310Z,13.86
2023-10-29T21:59:25.092Z,13.86
2023-10-29T22:02:27.993Z,13.88
2023-10-29T22:05:32.089Z,13.92
2023-10-29T22:08:35.401Z,13.92
2023-10-29T22:11:38.277Z,13.97
2023-10-29T22:14:41.066Z,13.91
2023-10-29T22:17:43.991Z,13.93
2023-10-29T22:20:48.326Z,13.87
2023-10-29T22:23:51.075Z,13.86
2023-10-29T22:26:54.146Z,13.84
2023-10-29T22:29:57.438Z,13.80
2023-10-29T22:33:00.330Z,13.81
2023-10-29T22:36:06.259Z,13.81
2023-10-29T22:39:09.148Z,13.79
2023-10-29T22:42:11.918Z,13.82
2023-10-29T22:45:14.694Z,13.83
2023-10-29T22:48:17.488Z,13.82
2023-10-29T22:51:21.778Z,13.78
2023-10-29T22:54:24.640Z,13.75
2023-10-29T22:57:27.394Z,13.75
2023-10-29T23:00:30.254Z,13.71
2023-10-29T23:03:33.262Z,13.73
2023-10-29T23:06:37.359Z,13.77
2023-10-29T23:09:40.270Z,13.77
2023-10-29T23:12:43.288Z,13.78
2023-10-29T23:15:46.196Z,13.76
2023-10-29T23:18:49.359Z,13.76
2023-10-29T23:21:53.705Z,13.76
2023-10-29T23:24:57.974Z,13.74
2023-10-29T23:28:00.724Z,13.74
2023-10-29T23:31:03.522Z,13.74
2023-10-29T23:34:06.896Z,13.78
2023-10-29T23:37:10.992Z,13.73
2023-10-29T23:40:14.959Z,13.72
2023-10-29T23:43:17.715Z,13.77
2023-10-29T23:46:20.922Z,13.76
2023-10-29T23:49:24.138Z,13.78
2023-10-29T23:52:28.470Z,13.79
2023-10-29T23:55:31.156Z,13.81
2023-10-29T23:58:33.827Z,13.78
